sensor_id;sensor_type;location;lat;lon;timestamp;temperature;humidity
324;DHT22;149;51.094;17.002;2022-07-17T00:01:01;12.20;99.90
324;DHT22;149;51.094;17.002;2022-07-17T00:03:28;12.20;99.90
324;DHT22;149;51.094;17.002;2022-07-17T00:05:56;12.20;99.90
324;DHT22;149;51.094;17.002;2022-07-17T00:08:23;12.10;99.90
324;DHT22;149;51.094;17.002;2022-07-17T00:10:50;12.10;99.90
324;DHT22;149;51.094;17.002;2022-07-17T00:13:18;12.10;99.90
324;DHT22;149;51.094;17.002;2022-07-17T00:15:45;12.20;99.90
324;DHT22;149;51.094;17.002;2022-07-17T00:18:12;12.10;99.90
324;DHT22;149;51.094;17.002;2022-07-17T00:20:40;12.00;99.90
324;DHT22;149;51.094;17.002;2022-07-17T00:23:07;12.00;99.90
324;DHT22;149;51.094;17.002;2022-07-17T00:25:34;12.00;99.90
324;DHT22;149;51.094;17.002;2022-07-17T00:28:03;12.00;99.90
324;DHT22;149;51.094;17.002;2022-07-17T00:30:30;12.00;99.90
324;DHT22;149;51.094;17.002;2022-07-17T00:32:58;11.90;99.90
324;DHT22;149;51.094;17.002;2022-07-17T00:35:25;11.90;99.90
324;DHT22;149;51.094;17.002;2022-07-17T00:37:52;11.80;99.90
324;DHT22;149;51.094;17.002;2022-07-17T00:40:21;11.90;99.90
324;DHT22;149;51.094;17.002;2022-07-17T00:42:50;11.80;99.90
324;DHT22;149;51.094;17.002;2022-07-17T00:45:18;11.80;99.90
324;DHT22;149;51.094;17.002;2022-07-17T00:48:00;11.80;99.90
324;DHT22;149;51.094;17.002;2022-07-17T00:50:35;11.80;99.90
324;DHT22;149;51.094;17.002;2022-07-17T00:53:04;11.90;99.90
324;DHT22;149;51.094;17.002;2022-07-17T00:55:34;11.90;99.90
324;DHT22;149;51.094;17.002;2022-07-17T00:58:13;11.80;99.90
324;DHT22;149;51.094;17.002;2022-07-17T01:00:43;11.80;99.90
324;DHT22;149;51.094;17.002;2022-07-17T01:03:13;11.80;99.90
324;DHT22;149;51.094;17.002;2022-07-17T01:05:42;11.70;99.90
324;DHT22;149;51.094;17.002;2022-07-17T01:08:09;11.60;99.90
324;DHT22;149;51.094;17.002;2022-07-17T01:10:37;11.60;99.90
324;DHT22;149;51.094;17.002;2022-07-17T01:13:05;11.50;99.90
324;DHT22;149;51.094;17.002;2022-07-17T01:15:37;11.50;99.90
324;DHT22;149;51.094;17.002;2022-07-17T01:18:06;11.50;99.90
324;DHT22;149;51.094;17.002;2022-07-17T01:20:36;11.60;99.90
324;DHT22;149;51.094;17.002;2022-07-17T01:23:03;11.50;99.90
324;DHT22;149;51.094;17.002;2022-07-17T01:25:31;11.50;99.90
324;DHT22;149;51.094;17.002;2022-07-17T01:27:59;11.50;99.90
324;DHT22;149;51.094;17.002;2022-07-17T01:30:28;11.40;99.90
324;DHT22;149;51.094;17.002;2022-07-17T01:32:55;11.40;99.90
324;DHT22;149;51.094;17.002;2022-07-17T01:35:22;11.50;99.90
324;DHT22;149;51.094;17.002;2022-07-17T01:37:49;11.50;99.90
324;DHT22;149;51.094;17.002;2022-07-17T01:40:17;11.40;99.90
324;DHT22;149;51.094;17.002;2022-07-17T01:42:47;11.30;99.90
324;DHT22;149;51.094;17.002;2022-07-17T01:45:16;11.30;99.90
324;DHT22;149;51.094;17.002;2022-07-17T01:47:44;11.30;99.90
324;DHT22;149;51.094;17.002;2022-07-17T01:50:12;11.40;99.90
324;DHT22;149;51.094;17.002;2022-07-17T01:52:41;11.30;99.90
324;DHT22;149;51.094;17.002;2022-07-17T01:55:10;11.10;99.90
324;DHT22;149;51.094;17.002;2022-07-17T01:57:39;11.10;99.90
324;DHT22;149;51.094;17.002;2022-07-17T02:00:10;11.00;99.90
324;DHT22;149;51.094;17.002;2022-07-17T02:02:37;11.10;99.90
324;DHT22;149;51.094;17.002;2022-07-17T02:05:05;11.20;99.90
324;DHT22;149;51.094;17.002;2022-07-17T02:07:36;11.20;99.90
324;DHT22;149;51.094;17.002;2022-07-17T02:10:08;11.30;99.90
324;DHT22;149;51.094;17.002;2022-07-17T02:12:36;11.40;99.90
324;DHT22;149;51.094;17.002;2022-07-17T02:15:05;11.40;99.90
324;DHT22;149;51.094;17.002;2022-07-17T02:17:32;11.40;99.90
324;DHT22;149;51.094;17.002;2022-07-17T02:19:59;11.30;99.90
324;DHT22;149;51.094;17.002;2022-07-17T02:22:26;11.10;99.90
324;DHT22;149;51.094;17.002;2022-07-17T02:24:54;11.10;99.90
324;DHT22;149;51.094;17.002;2022-07-17T02:27:21;11.10;99.90
324;DHT22;149;51.094;17.002;2022-07-17T02:29:49;10.90;99.90
324;DHT22;149;51.094;17.002;2022-07-17T02:32:16;11.00;99.90
324;DHT22;149;51.094;17.002;2022-07-17T02:34:43;11.10;99.90
324;DHT22;149;51.094;17.002;2022-07-17T02:37:10;11.00;99.90
324;DHT22;149;51.094;17.002;2022-07-17T02:39:38;11.20;99.90
324;DHT22;149;51.094;17.002;2022-07-17T02:42:22;11.10;99.90
324;DHT22;149;51.094;17.002;2022-07-17T02:44:50;11.10;99.90
324;DHT22;149;51.094;17.002;2022-07-17T02:47:27;11.00;99.90
324;DHT22;149;51.094;17.002;2022-07-17T02:49:54;10.90;99.90
324;DHT22;149;51.094;17.002;2022-07-17T02:52:22;10.90;99.90
324;DHT22;149;51.094;17.002;2022-07-17T02:54:49;10.90;99.90
324;DHT22;149;51.094;17.002;2022-07-17T02:57:16;10.80;99.90
324;DHT22;149;51.094;17.002;2022-07-17T02:59:46;10.70;99.90
324;DHT22;149;51.094;17.002;2022-07-17T03:02:14;10.80;99.90
324;DHT22;149;51.094;17.002;2022-07-17T03:04:41;10.80;99.90
324;DHT22;149;51.094;17.002;2022-07-17T03:07:08;10.80;99.90
324;DHT22;149;51.094;17.002;2022-07-17T03:09:36;10.80;99.90
324;DHT22;149;51.094;17.002;2022-07-17T03:12:03;10.90;99.90
324;DHT22;149;51.094;17.002;2022-07-17T03:14:30;11.10;99.90
324;DHT22;149;51.094;17.002;2022-07-17T03:16:57;11.10;99.90
324;DHT22;149;51.094;17.002;2022-07-17T03:19:25;11.20;99.90
324;DHT22;149;51.094;17.002;2022-07-17T03:21:52;11.10;99.90
324;DHT22;149;51.094;17.002;2022-07-17T03:24:19;11.20;99.90
324;DHT22;149;51.094;17.002;2022-07-17T03:26:46;11.40;99.90
324;DHT22;149;51.094;17.002;2022-07-17T03:29:14;11.50;99.90
324;DHT22;149;51.094;17.002;2022-07-17T03:31:45;11.40;99.90
324;DHT22;149;51.094;17.002;2022-07-17T03:34:12;11.40;99.90
324;DHT22;149;51.094;17.002;2022-07-17T03:36:40;11.60;99.90
324;DHT22;149;51.094;17.002;2022-07-17T03:39:07;11.80;99.90
324;DHT22;149;51.094;17.002;2022-07-17T03:41:35;12.00;99.90
324;DHT22;149;51.094;17.002;2022-07-17T03:44:02;12.40;99.90
324;DHT22;149;51.094;17.002;2022-07-17T03:46:30;13.00;99.90
324;DHT22;149;51.094;17.002;2022-07-17T03:48:58;13.60;99.90
324;DHT22;149;51.094;17.002;2022-07-17T03:51:25;14.30;99.90
324;DHT22;149;51.094;17.002;2022-07-17T03:53:54;15.00;99.90
324;DHT22;149;51.094;17.002;2022-07-17T03:56:21;15.20;99.90
324;DHT22;149;51.094;17.002;2022-07-17T03:58:48;15.10;99.90
324;DHT22;149;51.094;17.002;2022-07-17T04:01:16;15.00;99.90
324;DHT22;149;51.094;17.002;2022-07-17T04:03:43;14.90;99.90
324;DHT22;149;51.094;17.002;2022-07-17T04:06:11;14.80;99.90
324;DHT22;149;51.094;17.002;2022-07-17T04:08:38;14.90;99.90
324;DHT22;149;51.094;17.002;2022-07-17T04:11:06;14.80;99.90
324;DHT22;149;51.094;17.002;2022-07-17T04:13:36;14.50;99.90
324;DHT22;149;51.094;17.002;2022-07-17T04:16:04;14.30;99.90
324;DHT22;149;51.094;17.002;2022-07-17T04:18:33;14.10;99.90
324;DHT22;149;51.094;17.002;2022-07-17T04:21:06;13.70;99.90
324;DHT22;149;51.094;17.002;2022-07-17T04:23:34;13.90;99.90
324;DHT22;149;51.094;17.002;2022-07-17T04:26:03;13.80;99.90
324;DHT22;149;51.094;17.002;2022-07-17T04:28:37;13.90;99.90
324;DHT22;149;51.094;17.002;2022-07-17T04:31:06;13.90;99.90
324;DHT22;149;51.094;17.002;2022-07-17T04:33:33;13.90;99.90
324;DHT22;149;51.094;17.002;2022-07-17T04:36:00;13.90;99.90
324;DHT22;149;51.094;17.002;2022-07-17T04:38:28;13.80;99.90
324;DHT22;149;51.094;17.002;2022-07-17T04:40:55;14.00;99.90
324;DHT22;149;51.094;17.002;2022-07-17T04:43:23;14.00;99.90
324;DHT22;149;51.094;17.002;2022-07-17T04:45:50;14.10;99.90
324;DHT22;149;51.094;17.002;2022-07-17T04:48:17;14.20;99.90
324;DHT22;149;51.094;17.002;2022-07-17T04:50:44;14.20;99.90
324;DHT22;149;51.094;17.002;2022-07-17T04:53:11;14.40;99.90
324;DHT22;149;51.094;17.002;2022-07-17T04:55:38;14.40;99.90
324;DHT22;149;51.094;17.002;2022-07-17T04:58:05;14.50;99.90
324;DHT22;149;51.094;17.002;2022-07-17T05:00:33;14.50;99.90
324;DHT22;149;51.094;17.002;2022-07-17T05:03:00;14.60;99.90
324;DHT22;149;51.094;17.002;2022-07-17T05:05:28;14.70;99.90
324;DHT22;149;51.094;17.002;2022-07-17T05:07:56;14.80;99.90
324;DHT22;149;51.094;17.002;2022-07-17T05:10:23;15.00;99.90
324;DHT22;149;51.094;17.002;2022-07-17T05:12:54;15.00;99.90
324;DHT22;149;51.094;17.002;2022-07-17T05:15:21;15.10;99.90
324;DHT22;149;51.094;17.002;2022-07-17T05:17:49;15.20;99.90
324;DHT22;149;51.094;17.002;2022-07-17T05:20:16;15.20;99.90
324;DHT22;149;51.094;17.002;2022-07-17T05:22:43;15.30;99.90
324;DHT22;149;51.094;17.002;2022-07-17T05:25:10;15.50;99.90
324;DHT22;149;51.094;17.002;2022-07-17T05:27:38;15.50;99.90
324;DHT22;149;51.094;17.002;2022-07-17T05:30:05;15.80;99.90
324;DHT22;149;51.094;17.002;2022-07-17T05:32:33;16.10;99.90
324;DHT22;149;51.094;17.002;2022-07-17T05:35:00;16.20;99.90
324;DHT22;149;51.094;17.002;2022-07-17T05:37:27;16.40;99.90
324;DHT22;149;51.094;17.002;2022-07-17T05:39:54;16.50;99.90
324;DHT22;149;51.094;17.002;2022-07-17T05:42:22;16.60;99.90
324;DHT22;149;51.094;17.002;2022-07-17T05:44:49;16.80;99.90
324;DHT22;149;51.094;17.002;2022-07-17T05:47:16;16.70;99.90
324;DHT22;149;51.094;17.002;2022-07-17T05:49:44;17.00;99.90
324;DHT22;149;51.094;17.002;2022-07-17T05:52:11;17.10;99.90
324;DHT22;149;51.094;17.002;2022-07-17T05:54:38;17.30;99.90
324;DHT22;149;51.094;17.002;2022-07-17T05:57:05;17.30;99.90
324;DHT22;149;51.094;17.002;2022-07-17T05:59:36;17.40;99.90
324;DHT22;149;51.094;17.002;2022-07-17T06:02:03;17.40;99.90
324;DHT22;149;51.094;17.002;2022-07-17T06:04:32;17.40;99.90
324;DHT22;149;51.094;17.002;2022-07-17T06:06:59;17.60;99.90
324;DHT22;149;51.094;17.002;2022-07-17T06:09:27;17.90;99.90
324;DHT22;149;51.094;17.002;2022-07-17T06:11:54;18.20;99.90
324;DHT22;149;51.094;17.002;2022-07-17T06:14:21;18.50;99.90
324;DHT22;149;51.094;17.002;2022-07-17T06:16:51;18.70;99.90
324;DHT22;149;51.094;17.002;2022-07-17T06:19:19;18.70;99.90
324;DHT22;149;51.094;17.002;2022-07-17T06:21:46;18.80;99.90
324;DHT22;149;51.094;17.002;2022-07-17T06:24:13;18.90;99.90
324;DHT22;149;51.094;17.002;2022-07-17T06:26:40;19.30;99.90
324;DHT22;149;51.094;17.002;2022-07-17T06:29:08;20.00;99.90
324;DHT22;149;51.094;17.002;2022-07-17T06:31:35;20.60;99.90
324;DHT22;149;51.094;17.002;2022-07-17T06:34:02;20.90;99.90
324;DHT22;149;51.094;17.002;2022-07-17T06:36:30;21.10;99.90
324;DHT22;149;51.094;17.002;2022-07-17T06:38:57;21.10;99.90
324;DHT22;149;51.094;17.002;2022-07-17T06:41:24;21.00;99.90
324;DHT22;149;51.094;17.002;2022-07-17T06:43:52;20.90;99.90
324;DHT22;149;51.094;17.002;2022-07-17T06:46:19;21.10;99.90
324;DHT22;149;51.094;17.002;2022-07-17T06:48:47;20.90;99.90
324;DHT22;149;51.094;17.002;2022-07-17T06:51:18;21.10;99.90
324;DHT22;149;51.094;17.002;2022-07-17T06:53:46;21.60;99.90
324;DHT22;149;51.094;17.002;2022-07-17T06:56:13;22.10;99.90
324;DHT22;149;51.094;17.002;2022-07-17T06:58:40;22.30;99.90
324;DHT22;149;51.094;17.002;2022-07-17T07:01:07;23.20;99.90
324;DHT22;149;51.094;17.002;2022-07-17T07:03:35;23.50;99.90
324;DHT22;149;51.094;17.002;2022-07-17T07:06:02;23.60;99.90
324;DHT22;149;51.094;17.002;2022-07-17T07:08:29;24.10;99.90
324;DHT22;149;51.094;17.002;2022-07-17T07:10:56;24.80;99.90
324;DHT22;149;51.094;17.002;2022-07-17T07:13:24;25.50;99.90
324;DHT22;149;51.094;17.002;2022-07-17T07:15:51;26.40;99.90
324;DHT22;149;51.094;17.002;2022-07-17T07:18:18;27.10;99.90
324;DHT22;149;51.094;17.002;2022-07-17T07:20:45;29.40;97.20
324;DHT22;149;51.094;17.002;2022-07-17T07:23:12;30.10;93.60
324;DHT22;149;51.094;17.002;2022-07-17T07:25:39;29.00;92.40
324;DHT22;149;51.094;17.002;2022-07-17T07:28:06;29.30;93.00
324;DHT22;149;51.094;17.002;2022-07-17T07:30:34;30.70;89.20
324;DHT22;149;51.094;17.002;2022-07-17T07:33:02;31.10;85.70
324;DHT22;149;51.094;17.002;2022-07-17T07:35:30;32.30;80.90
324;DHT22;149;51.094;17.002;2022-07-17T07:37:57;33.20;74.70
324;DHT22;149;51.094;17.002;2022-07-17T07:40:25;33.70;71.30
324;DHT22;149;51.094;17.002;2022-07-17T07:42:52;33.00;68.30
324;DHT22;149;51.094;17.002;2022-07-17T07:45:19;33.00;68.20
324;DHT22;149;51.094;17.002;2022-07-17T07:47:48;33.40;66.00
324;DHT22;149;51.094;17.002;2022-07-17T07:50:18;34.50;64.80
324;DHT22;149;51.094;17.002;2022-07-17T07:52:48;35.60;61.80
324;DHT22;149;51.094;17.002;2022-07-17T07:55:16;33.70;62.00
324;DHT22;149;51.094;17.002;2022-07-17T07:57:48;31.50;67.10
324;DHT22;149;51.094;17.002;2022-07-17T08:00:16;31.10;67.90
324;DHT22;149;51.094;17.002;2022-07-17T08:02:44;31.10;67.90
324;DHT22;149;51.094;17.002;2022-07-17T08:05:11;31.50;67.80
324;DHT22;149;51.094;17.002;2022-07-17T08:07:39;31.40;69.80
324;DHT22;149;51.094;17.002;2022-07-17T08:10:06;31.40;66.10
324;DHT22;149;51.094;17.002;2022-07-17T08:12:34;30.60;68.50
324;DHT22;149;51.094;17.002;2022-07-17T08:15:16;31.90;65.30
324;DHT22;149;51.094;17.002;2022-07-17T08:17:44;30.40;68.20
324;DHT22;149;51.094;17.002;2022-07-17T08:20:12;28.00;72.80
324;DHT22;149;51.094;17.002;2022-07-17T08:22:42;27.10;76.30
324;DHT22;149;51.094;17.002;2022-07-17T08:25:29;27.20;78.10
324;DHT22;149;51.094;17.002;2022-07-17T08:27:58;30.40;72.70
324;DHT22;149;51.094;17.002;2022-07-17T08:30:26;31.90;65.30
324;DHT22;149;51.094;17.002;2022-07-17T08:32:53;30.40;67.20
324;DHT22;149;51.094;17.002;2022-07-17T08:35:21;28.50;71.20
324;DHT22;149;51.094;17.002;2022-07-17T08:37:50;27.70;73.70
324;DHT22;149;51.094;17.002;2022-07-17T08:40:26;27.10;75.00
324;DHT22;149;51.094;17.002;2022-07-17T08:42:55;28.30;72.70
324;DHT22;149;51.094;17.002;2022-07-17T08:45:23;29.70;68.70
324;DHT22;149;51.094;17.002;2022-07-17T08:47:52;31.40;65.10
324;DHT22;149;51.094;17.002;2022-07-17T08:50:28;32.30;62.20
324;DHT22;149;51.094;17.002;2022-07-17T08:52:57;31.40;63.80
324;DHT22;149;51.094;17.002;2022-07-17T08:55:25;28.50;68.20
324;DHT22;149;51.094;17.002;2022-07-17T08:57:52;26.90;73.30
324;DHT22;149;51.094;17.002;2022-07-17T09:00:21;26.50;75.80
324;DHT22;149;51.094;17.002;2022-07-17T09:03:00;26.10;77.00
324;DHT22;149;51.094;17.002;2022-07-17T09:05:34;25.60;78.50
324;DHT22;149;51.094;17.002;2022-07-17T09:08:02;24.60;79.80
324;DHT22;149;51.094;17.002;2022-07-17T09:10:38;26.30;77.90
324;DHT22;149;51.094;17.002;2022-07-17T09:13:26;30.40;67.80
324;DHT22;149;51.094;17.002;2022-07-17T09:15:58;30.40;66.00
324;DHT22;149;51.094;17.002;2022-07-17T09:18:25;30.60;65.60
324;DHT22;149;51.094;17.002;2022-07-17T09:20:56;29.10;66.40
324;DHT22;149;51.094;17.002;2022-07-17T09:23:26;28.40;70.30
324;DHT22;149;51.094;17.002;2022-07-17T09:25:56;30.10;65.90
324;DHT22;149;51.094;17.002;2022-07-17T09:28:23;32.30;61.50
324;DHT22;149;51.094;17.002;2022-07-17T09:30:53;33.30;58.50
324;DHT22;149;51.094;17.002;2022-07-17T09:33:23;31.30;60.70
324;DHT22;149;51.094;17.002;2022-07-17T09:35:53;28.90;64.70
324;DHT22;149;51.094;17.002;2022-07-17T09:38:35;28.60;66.40
324;DHT22;149;51.094;17.002;2022-07-17T09:41:11;28.50;66.90
324;DHT22;149;51.094;17.002;2022-07-17T09:43:46;27.90;69.10
324;DHT22;149;51.094;17.002;2022-07-17T09:46:31;26.90;70.10
324;DHT22;149;51.094;17.002;2022-07-17T09:49:02;26.30;71.80
324;DHT22;149;51.094;17.002;2022-07-17T09:51:35;26.50;72.30
324;DHT22;149;51.094;17.002;2022-07-17T09:54:08;26.50;72.40
324;DHT22;149;51.094;17.002;2022-07-17T09:56:36;26.10;73.30
324;DHT22;149;51.094;17.002;2022-07-17T09:59:10;25.50;74.80
324;DHT22;149;51.094;17.002;2022-07-17T10:01:42;24.70;75.60
324;DHT22;149;51.094;17.002;2022-07-17T10:04:11;24.60;76.60
324;DHT22;149;51.094;17.002;2022-07-17T10:06:39;24.80;78.80
324;DHT22;149;51.094;17.002;2022-07-17T10:09:06;25.00;78.80
324;DHT22;149;51.094;17.002;2022-07-17T10:11:36;25.40;76.60
324;DHT22;149;51.094;17.002;2022-07-17T10:14:14;25.70;75.70
324;DHT22;149;51.094;17.002;2022-07-17T10:16:41;25.60;75.70
324;DHT22;149;51.094;17.002;2022-07-17T10:19:24;25.40;75.30
324;DHT22;149;51.094;17.002;2022-07-17T10:21:56;25.00;76.70
324;DHT22;149;51.094;17.002;2022-07-17T10:24:25;25.20;77.50
324;DHT22;149;51.094;17.002;2022-07-17T10:26:54;25.20;77.70
324;DHT22;149;51.094;17.002;2022-07-17T10:29:36;25.60;76.10
324;DHT22;149;51.094;17.002;2022-07-17T10:32:18;25.80;75.50
324;DHT22;149;51.094;17.002;2022-07-17T10:34:48;25.60;75.10
324;DHT22;149;51.094;17.002;2022-07-17T10:37:32;25.80;74.90
324;DHT22;149;51.094;17.002;2022-07-17T10:45:20;26.10;73.60
324;DHT22;149;51.094;17.002;2022-07-17T10:48:00;26.30;73.40
324;DHT22;149;51.094;17.002;2022-07-17T10:50:55;26.40;72.70
324;DHT22;149;51.094;17.002;2022-07-17T10:53:33;26.30;73.20
324;DHT22;149;51.094;17.002;2022-07-17T10:56:03;26.30;74.20
324;DHT22;149;51.094;17.002;2022-07-17T10:58:40;26.20;75.30
324;DHT22;149;51.094;17.002;2022-07-17T11:01:15;26.40;74.60
324;DHT22;149;51.094;17.002;2022-07-17T11:03:51;26.20;74.10
324;DHT22;149;51.094;17.002;2022-07-17T11:06:23;25.90;73.60
324;DHT22;149;51.094;17.002;2022-07-17T11:08:57;25.70;74.70
324;DHT22;149;51.094;17.002;2022-07-17T11:11:42;25.40;75.80
324;DHT22;149;51.094;17.002;2022-07-17T11:14:14;25.30;75.20
324;DHT22;149;51.094;17.002;2022-07-17T11:16:59;24.90;75.20
324;DHT22;149;51.094;17.002;2022-07-17T11:19:30;24.60;77.10
324;DHT22;149;51.094;17.002;2022-07-17T11:22:06;24.30;77.50
324;DHT22;149;51.094;17.002;2022-07-17T11:24:44;24.10;79.30
324;DHT22;149;51.094;17.002;2022-07-17T11:27:17;24.10;80.20
324;DHT22;149;51.094;17.002;2022-07-17T11:29:45;24.40;79.60
324;DHT22;149;51.094;17.002;2022-07-17T11:32:14;24.40;78.40
324;DHT22;149;51.094;17.002;2022-07-17T11:34:42;24.60;77.70
324;DHT22;149;51.094;17.002;2022-07-17T11:37:09;24.80;77.40
324;DHT22;149;51.094;17.002;2022-07-17T11:39:45;25.20;76.70
324;DHT22;149;51.094;17.002;2022-07-17T11:42:18;25.30;76.20
324;DHT22;149;51.094;17.002;2022-07-17T11:44:46;25.30;75.30
324;DHT22;149;51.094;17.002;2022-07-17T11:47:23;25.20;74.60
324;DHT22;149;51.094;17.002;2022-07-17T11:49:50;25.30;74.30
324;DHT22;149;51.094;17.002;2022-07-17T11:52:20;24.30;75.90
324;DHT22;149;51.094;17.002;2022-07-17T11:54:56;24.20;77.50
324;DHT22;149;51.094;17.002;2022-07-17T11:57:25;24.10;77.30
324;DHT22;149;51.094;17.002;2022-07-17T11:59:53;24.10;77.80
324;DHT22;149;51.094;17.002;2022-07-17T12:02:31;24.00;76.70
324;DHT22;149;51.094;17.002;2022-07-17T12:05:00;24.00;77.70
324;DHT22;149;51.094;17.002;2022-07-17T12:07:40;24.10;78.20
324;DHT22;149;51.094;17.002;2022-07-17T12:15:39;23.70;77.90
324;DHT22;149;51.094;17.002;2022-07-17T12:18:23;23.60;78.10
324;DHT22;149;51.094;17.002;2022-07-17T12:20:53;23.60;78.00
324;DHT22;149;51.094;17.002;2022-07-17T12:23:30;23.60;77.30
324;DHT22;149;51.094;17.002;2022-07-17T12:26:08;23.40;78.50
324;DHT22;149;51.094;17.002;2022-07-17T12:28:37;23.50;79.60
324;DHT22;149;51.094;17.002;2022-07-17T12:31:04;23.70;78.60
324;DHT22;149;51.094;17.002;2022-07-17T12:33:35;23.70;78.40
324;DHT22;149;51.094;17.002;2022-07-17T12:36:02;23.40;78.50
324;DHT22;149;51.094;17.002;2022-07-17T12:38:30;23.50;79.10
324;DHT22;149;51.094;17.002;2022-07-17T12:40:57;23.50;80.30
324;DHT22;149;51.094;17.002;2022-07-17T12:43:25;23.70;80.40
324;DHT22;149;51.094;17.002;2022-07-17T12:45:52;23.90;79.00
324;DHT22;149;51.094;17.002;2022-07-17T12:48:28;24.00;78.70
324;DHT22;149;51.094;17.002;2022-07-17T12:50:55;23.90;78.80
324;DHT22;149;51.094;17.002;2022-07-17T12:53:22;23.90;80.00
324;DHT22;149;51.094;17.002;2022-07-17T12:55:49;24.00;78.70
324;DHT22;149;51.094;17.002;2022-07-17T12:58:18;23.90;76.30
324;DHT22;149;51.094;17.002;2022-07-17T13:00:46;23.70;75.50
324;DHT22;149;51.094;17.002;2022-07-17T13:03:13;23.50;74.40
324;DHT22;149;51.094;17.002;2022-07-17T13:05:41;23.30;73.80
324;DHT22;149;51.094;17.002;2022-07-17T13:08:08;23.40;74.60
324;DHT22;149;51.094;17.002;2022-07-17T13:10:36;23.40;74.40
324;DHT22;149;51.094;17.002;2022-07-17T13:13:03;23.60;74.40
324;DHT22;149;51.094;17.002;2022-07-17T13:15:31;23.80;73.80
324;DHT22;149;51.094;17.002;2022-07-17T13:17:59;23.90;74.90
324;DHT22;149;51.094;17.002;2022-07-17T13:20:28;23.90;73.70
324;DHT22;149;51.094;17.002;2022-07-17T13:22:56;23.90;73.90
324;DHT22;149;51.094;17.002;2022-07-17T13:25:24;23.80;73.90
324;DHT22;149;51.094;17.002;2022-07-17T13:27:51;24.00;73.60
324;DHT22;149;51.094;17.002;2022-07-17T13:30:19;24.00;73.70
324;DHT22;149;51.094;17.002;2022-07-17T13:32:46;23.90;73.60
324;DHT22;149;51.094;17.002;2022-07-17T13:35:13;24.00;74.80
324;DHT22;149;51.094;17.002;2022-07-17T13:37:40;23.90;74.10
324;DHT22;149;51.094;17.002;2022-07-17T13:40:08;23.70;74.90
324;DHT22;149;51.094;17.002;2022-07-17T13:42:36;23.60;75.20
324;DHT22;149;51.094;17.002;2022-07-17T13:45:04;23.50;75.30
324;DHT22;149;51.094;17.002;2022-07-17T13:47:31;23.40;74.60
324;DHT22;149;51.094;17.002;2022-07-17T13:49:58;23.40;74.20
324;DHT22;149;51.094;17.002;2022-07-17T13:52:25;23.40;75.80
324;DHT22;149;51.094;17.002;2022-07-17T13:54:52;23.30;76.70
324;DHT22;149;51.094;17.002;2022-07-17T13:57:41;23.30;76.90
324;DHT22;149;51.094;17.002;2022-07-17T14:00:10;23.20;76.40
324;DHT22;149;51.094;17.002;2022-07-17T14:02:38;22.90;77.90
324;DHT22;149;51.094;17.002;2022-07-17T14:05:07;22.70;78.30
324;DHT22;149;51.094;17.002;2022-07-17T14:07:36;22.70;78.80
324;DHT22;149;51.094;17.002;2022-07-17T14:10:04;22.90;78.60
324;DHT22;149;51.094;17.002;2022-07-17T14:12:31;23.10;78.30
324;DHT22;149;51.094;17.002;2022-07-17T14:14:59;23.20;78.60
324;DHT22;149;51.094;17.002;2022-07-17T14:17:26;23.10;78.90
324;DHT22;149;51.094;17.002;2022-07-17T14:19:53;23.40;79.80
324;DHT22;149;51.094;17.002;2022-07-17T14:22:20;23.90;80.50
324;DHT22;149;51.094;17.002;2022-07-17T14:24:48;24.20;77.60
324;DHT22;149;51.094;17.002;2022-07-17T14:27:15;24.20;77.20
324;DHT22;149;51.094;17.002;2022-07-17T14:29:42;24.10;77.40
324;DHT22;149;51.094;17.002;2022-07-17T14:32:09;23.90;77.30
324;DHT22;149;51.094;17.002;2022-07-17T14:34:37;23.70;78.10
324;DHT22;149;51.094;17.002;2022-07-17T14:37:04;23.40;77.70
324;DHT22;149;51.094;17.002;2022-07-17T14:39:34;23.30;78.20
324;DHT22;149;51.094;17.002;2022-07-17T14:42:03;23.20;78.60
324;DHT22;149;51.094;17.002;2022-07-17T14:44:30;23.20;79.70
324;DHT22;149;51.094;17.002;2022-07-17T14:46:58;23.30;79.50
324;DHT22;149;51.094;17.002;2022-07-17T14:49:28;23.30;79.40
324;DHT22;149;51.094;17.002;2022-07-17T14:51:55;23.30;79.70
324;DHT22;149;51.094;17.002;2022-07-17T14:54:23;23.30;79.90
324;DHT22;149;51.094;17.002;2022-07-17T14:56:51;23.40;80.40
324;DHT22;149;51.094;17.002;2022-07-17T14:59:18;23.30;80.10
324;DHT22;149;51.094;17.002;2022-07-17T15:01:45;23.10;80.00
324;DHT22;149;51.094;17.002;2022-07-17T15:04:12;23.10;80.70
324;DHT22;149;51.094;17.002;2022-07-17T15:06:40;23.20;80.00
324;DHT22;149;51.094;17.002;2022-07-17T15:09:08;23.20;79.00
324;DHT22;149;51.094;17.002;2022-07-17T15:11:38;23.20;79.70
324;DHT22;149;51.094;17.002;2022-07-17T15:14:06;23.20;80.00
324;DHT22;149;51.094;17.002;2022-07-17T15:16:33;23.30;80.00
324;DHT22;149;51.094;17.002;2022-07-17T15:19:01;23.30;79.70
324;DHT22;149;51.094;17.002;2022-07-17T15:21:28;23.30;80.00
324;DHT22;149;51.094;17.002;2022-07-17T15:24:16;23.20;80.10
324;DHT22;149;51.094;17.002;2022-07-17T15:26:44;23.10;79.70
324;DHT22;149;51.094;17.002;2022-07-17T15:29:15;22.90;80.40
324;DHT22;149;51.094;17.002;2022-07-17T15:31:42;22.80;80.50
324;DHT22;149;51.094;17.002;2022-07-17T15:34:10;22.80;79.50
324;DHT22;149;51.094;17.002;2022-07-17T15:36:38;22.70;80.10
324;DHT22;149;51.094;17.002;2022-07-17T15:39:06;22.70;80.50
324;DHT22;149;51.094;17.002;2022-07-17T15:41:34;22.70;81.00
324;DHT22;149;51.094;17.002;2022-07-17T15:44:02;22.80;81.10
324;DHT22;149;51.094;17.002;2022-07-17T15:46:30;22.80;81.40
324;DHT22;149;51.094;17.002;2022-07-17T15:48:59;22.70;81.10
324;DHT22;149;51.094;17.002;2022-07-17T15:51:26;22.50;80.90
324;DHT22;149;51.094;17.002;2022-07-17T15:53:55;22.40;81.70
324;DHT22;149;51.094;17.002;2022-07-17T15:56:23;22.30;82.00
324;DHT22;149;51.094;17.002;2022-07-17T15:58:51;22.40;82.20
324;DHT22;149;51.094;17.002;2022-07-17T16:01:18;22.40;82.50
324;DHT22;149;51.094;17.002;2022-07-17T16:03:46;22.40;80.80
324;DHT22;149;51.094;17.002;2022-07-17T16:06:26;22.40;81.20
324;DHT22;149;51.094;17.002;2022-07-17T16:08:54;22.30;80.30
324;DHT22;149;51.094;17.002;2022-07-17T16:11:22;22.30;80.60
324;DHT22;149;51.094;17.002;2022-07-17T16:13:49;22.20;82.00
324;DHT22;149;51.094;17.002;2022-07-17T16:16:17;22.10;81.80
324;DHT22;149;51.094;17.002;2022-07-17T16:18:45;22.10;81.10
324;DHT22;149;51.094;17.002;2022-07-17T16:21:12;22.00;82.70
324;DHT22;149;51.094;17.002;2022-07-17T16:23:39;21.90;82.30
324;DHT22;149;51.094;17.002;2022-07-17T16:26:07;22.00;81.30
324;DHT22;149;51.094;17.002;2022-07-17T16:28:53;21.90;81.30
324;DHT22;149;51.094;17.002;2022-07-17T16:31:20;21.90;80.80
324;DHT22;149;51.094;17.002;2022-07-17T16:33:48;21.90;80.50
324;DHT22;149;51.094;17.002;2022-07-17T16:36:16;21.90;80.40
324;DHT22;149;51.094;17.002;2022-07-17T16:38:43;21.90;79.40
324;DHT22;149;51.094;17.002;2022-07-17T16:41:11;21.90;80.10